sensor_id;sensor_type;location;lat;lon;timestamp;temperature;humidity
4725;DHT22;2376;53.544;10.226;2023-07-20T00:01:30;16.20;99.90
4725;DHT22;2376;53.544;10.226;2023-07-20T00:03:57;16.20;99.90
4725;DHT22;2376;53.544;10.226;2023-07-20T00:06:24;16.20;99.90
4725;DHT22;2376;53.544;10.226;2023-07-20T00:08:53;16.20;99.90
4725;DHT22;2376;53.544;10.226;2023-07-20T00:11:21;16.20;99.90
4725;DHT22;2376;53.544;10.226;2023-07-20T00:13:48;16.20;99.90
4725;DHT22;2376;53.544;10.226;2023-07-20T00:16:14;16.10;99.90
4725;DHT22;2376;53.544;10.226;2023-07-20T00:18:41;16.10;99.90
4725;DHT22;2376;53.544;10.226;2023-07-20T00:21:08;16.10;99.90
4725;DHT22;2376;53.544;10.226;2023-07-20T00:23:34;16.10;99.90
4725;DHT22;2376;53.544;10.226;2023-07-20T00:26:01;16.10;99.90
4725;DHT22;2376;53.544;10.226;2023-07-20T00:28:29;16.10;99.90
4725;DHT22;2376;53.544;10.226;2023-07-20T00:30:56;16.10;99.90
4725;DHT22;2376;53.544;10.226;2023-07-20T00:33:25;16.10;99.90
4725;DHT22;2376;53.544;10.226;2023-07-20T00:35:52;16.10;99.90
4725;DHT22;2376;53.544;10.226;2023-07-20T00:38:18;16.10;99.90
4725;DHT22;2376;53.544;10.226;2023-07-20T00:40:46;16.10;99.90
4725;DHT22;2376;53.544;10.226;2023-07-20T00:43:13;16.10;99.90
4725;DHT22;2376;53.544;10.226;2023-07-20T00:45:42;16.10;99.90
4725;DHT22;2376;53.544;10.226;2023-07-20T00:48:09;16.20;99.90
4725;DHT22;2376;53.544;10.226;2023-07-20T00:50:37;16.20;99.90
4725;DHT22;2376;53.544;10.226;2023-07-20T00:53:06;16.20;99.90
4725;DHT22;2376;53.544;10.226;2023-07-20T00:55:34;16.20;99.90
4725;DHT22;2376;53.544;10.226;2023-07-20T00:58:01;16.10;99.90
4725;DHT22;2376;53.544;10.226;2023-07-20T01:00:27;16.10;99.90
4725;DHT22;2376;53.544;10.226;2023-07-20T01:02:56;16.10;99.90
4725;DHT22;2376;53.544;10.226;2023-07-20T01:05:28;16.20;99.90
4725;DHT22;2376;53.544;10.226;2023-07-20T01:08:01;16.20;99.90
4725;DHT22;2376;53.544;10.226;2023-07-20T01:10:35;16.20;99.90
4725;DHT22;2376;53.544;10.226;2023-07-20T01:13:03;16.20;99.90
4725;DHT22;2376;53.544;10.226;2023-07-20T01:15:34;16.20;99.90
4725;DHT22;2376;53.544;10.226;2023-07-20T01:18:02;16.20;99.90
4725;DHT22;2376;53.544;10.226;2023-07-20T01:20:31;16.20;99.90
4725;DHT22;2376;53.544;10.226;2023-07-20T01:23:21;16.20;99.90
4725;DHT22;2376;53.544;10.226;2023-07-20T01:26:02;16.20;99.90
4725;DHT22;2376;53.544;10.226;2023-07-20T01:29:14;16.20;99.90
4725;DHT22;2376;53.544;10.226;2023-07-20T01:31:46;16.20;99.90
4725;DHT22;2376;53.544;10.226;2023-07-20T01:34:17;16.20;99.90
4725;DHT22;2376;53.544;10.226;2023-07-20T01:36:45;16.20;99.90
4725;DHT22;2376;53.544;10.226;2023-07-20T01:39:12;16.30;99.90
4725;DHT22;2376;53.544;10.226;2023-07-20T01:41:39;16.20;99.90
4725;DHT22;2376;53.544;10.226;2023-07-20T01:44:07;16.30;99.90
4725;DHT22;2376;53.544;10.226;2023-07-20T01:46:33;16.20;99.90
4725;DHT22;2376;53.544;10.226;2023-07-20T01:49:02;16.20;99.90
4725;DHT22;2376;53.544;10.226;2023-07-20T01:51:28;16.20;99.90
4725;DHT22;2376;53.544;10.226;2023-07-20T01:53:55;16.20;99.90
4725;DHT22;2376;53.544;10.226;2023-07-20T01:56:22;16.20;99.90
4725;DHT22;2376;53.544;10.226;2023-07-20T01:58:48;16.20;99.90
4725;DHT22;2376;53.544;10.226;2023-07-20T02:01:15;16.20;99.90
4725;DHT22;2376;53.544;10.226;2023-07-20T02:03:41;16.20;99.90
4725;DHT22;2376;53.544;10.226;2023-07-20T02:06:09;16.20;99.90
4725;DHT22;2376;53.544;10.226;2023-07-20T02:08:36;16.20;99.90
4725;DHT22;2376;53.544;10.226;2023-07-20T02:11:03;16.20;99.90
4725;DHT22;2376;53.544;10.226;2023-07-20T02:13:30;16.20;99.90
4725;DHT22;2376;53.544;10.226;2023-07-20T02:15:57;16.20;99.90
4725;DHT22;2376;53.544;10.226;2023-07-20T02:18:23;16.20;99.90
4725;DHT22;2376;53.544;10.226;2023-07-20T02:20:52;16.10;99.90
4725;DHT22;2376;53.544;10.226;2023-07-20T02:23:20;16.10;99.90
4725;DHT22;2376;53.544;10.226;2023-07-20T02:25:47;16.10;99.90
4725;DHT22;2376;53.544;10.226;2023-07-20T02:28:14;16.10;99.90
4725;DHT22;2376;53.544;10.226;2023-07-20T02:30:41;16.10;99.90
4725;DHT22;2376;53.544;10.226;2023-07-20T02:33:07;16.00;99.90
4725;DHT22;2376;53.544;10.226;2023-07-20T02:35:34;16.00;99.90
4725;DHT22;2376;53.544;10.226;2023-07-20T02:38:01;16.00;99.90
4725;DHT22;2376;53.544;10.226;2023-07-20T02:40:29;16.00;99.90
4725;DHT22;2376;53.544;10.226;2023-07-20T02:42:56;16.00;99.90
4725;DHT22;2376;53.544;10.226;2023-07-20T02:45:23;16.00;99.90
4725;DHT22;2376;53.544;10.226;2023-07-20T02:47:49;16.00;99.90
4725;DHT22;2376;53.544;10.226;2023-07-20T02:50:16;16.00;99.90
4725;DHT22;2376;53.544;10.226;2023-07-20T02:52:43;16.00;99.90
4725;DHT22;2376;53.544;10.226;2023-07-20T02:55:09;16.00;99.90
4725;DHT22;2376;53.544;10.226;2023-07-20T02:57:37;16.00;99.90
4725;DHT22;2376;53.544;10.226;2023-07-20T03:00:05;16.10;99.90
4725;DHT22;2376;53.544;10.226;2023-07-20T03:02:32;16.10;99.90
4725;DHT22;2376;53.544;10.226;2023-07-20T03:04:59;16.10;99.90
4725;DHT22;2376;53.544;10.226;2023-07-20T03:07:26;16.00;99.90
4725;DHT22;2376;53.544;10.226;2023-07-20T03:09:53;16.00;99.90
4725;DHT22;2376;53.544;10.226;2023-07-20T03:12:20;16.00;99.90
4725;DHT22;2376;53.544;10.226;2023-07-20T03:14:48;16.10;99.90
4725;DHT22;2376;53.544;10.226;2023-07-20T03:17:15;16.00;99.90
4725;DHT22;2376;53.544;10.226;2023-07-20T03:19:41;16.00;99.90
4725;DHT22;2376;53.544;10.226;2023-07-20T03:22:08;16.00;99.90
4725;DHT22;2376;53.544;10.226;2023-07-20T03:24:35;16.00;99.90
4725;DHT22;2376;53.544;10.226;2023-07-20T03:27:01;16.00;99.90
4725;DHT22;2376;53.544;10.226;2023-07-20T03:29:28;16.00;99.90
4725;DHT22;2376;53.544;10.226;2023-07-20T03:31:58;16.00;99.90
4725;DHT22;2376;53.544;10.226;2023-07-20T03:34:25;16.00;99.90
4725;DHT22;2376;53.544;10.226;2023-07-20T03:36:52;16.00;99.90
4725;DHT22;2376;53.544;10.226;2023-07-20T03:39:18;16.00;99.90
4725;DHT22;2376;53.544;10.226;2023-07-20T03:41:45;16.00;99.90
4725;DHT22;2376;53.544;10.226;2023-07-20T03:44:11;16.00;99.90
4725;DHT22;2376;53.544;10.226;2023-07-20T03:46:38;16.00;99.90
4725;DHT22;2376;53.544;10.226;2023-07-20T03:49:06;16.00;99.90
4725;DHT22;2376;53.544;10.226;2023-07-20T03:51:34;16.00;99.90
4725;DHT22;2376;53.544;10.226;2023-07-20T03:54:01;16.00;99.90
4725;DHT22;2376;53.544;10.226;2023-07-20T03:56:27;16.00;99.90
4725;DHT22;2376;53.544;10.226;2023-07-20T03:58:54;16.00;99.90
4725;DHT22;2376;53.544;10.226;2023-07-20T04:01:21;16.10;99.90
4725;DHT22;2376;53.544;10.226;2023-07-20T04:03:47;16.10;99.90
4725;DHT22;2376;53.544;10.226;2023-07-20T04:06:15;16.10;99.90
4725;DHT22;2376;53.544;10.226;2023-07-20T04:08:42;16.10;99.90
4725;DHT22;2376;53.544;10.226;2023-07-20T04:11:09;16.10;99.90
4725;DHT22;2376;53.544;10.226;2023-07-20T04:13:36;16.10;99.90
4725;DHT22;2376;53.544;10.226;2023-07-20T04:16:03;16.20;99.90
4725;DHT22;2376;53.544;10.226;2023-07-20T04:18:30;16.20;99.90
4725;DHT22;2376;53.544;10.226;2023-07-20T04:20:56;16.20;99.90
4725;DHT22;2376;53.544;10.226;2023-07-20T04:23:24;16.20;99.90
4725;DHT22;2376;53.544;10.226;2023-07-20T04:25:51;16.20;99.90
4725;DHT22;2376;53.544;10.226;2023-07-20T04:28:17;16.10;99.90
4725;DHT22;2376;53.544;10.226;2023-07-20T04:30:44;16.20;99.90
4725;DHT22;2376;53.544;10.226;2023-07-20T04:33:11;16.20;99.90
4725;DHT22;2376;53.544;10.226;2023-07-20T04:35:51;16.20;99.90
4725;DHT22;2376;53.544;10.226;2023-07-20T04:38:18;16.20;99.90
4725;DHT22;2376;53.544;10.226;2023-07-20T04:40:47;16.20;99.90
4725;DHT22;2376;53.544;10.226;2023-07-20T04:43:14;16.20;99.90
4725;DHT22;2376;53.544;10.226;2023-07-20T04:45:41;16.30;99.90
4725;DHT22;2376;53.544;10.226;2023-07-20T04:48:10;16.20;99.90
4725;DHT22;2376;53.544;10.226;2023-07-20T04:50:38;16.30;99.90
4725;DHT22;2376;53.544;10.226;2023-07-20T04:53:04;16.30;99.90
4725;DHT22;2376;53.544;10.226;2023-07-20T04:55:31;16.20;99.90
4725;DHT22;2376;53.544;10.226;2023-07-20T04:58:00;16.20;99.90
4725;DHT22;2376;53.544;10.226;2023-07-20T05:00:27;16.20;99.90
4725;DHT22;2376;53.544;10.226;2023-07-20T05:02:53;16.30;99.90
4725;DHT22;2376;53.544;10.226;2023-07-20T05:05:20;16.30;99.90
4725;DHT22;2376;53.544;10.226;2023-07-20T05:07:47;16.30;99.90
4725;DHT22;2376;53.544;10.226;2023-07-20T05:10:13;16.40;99.90
4725;DHT22;2376;53.544;10.226;2023-07-20T05:12:40;16.40;99.90
4725;DHT22;2376;53.544;10.226;2023-07-20T05:15:09;16.50;99.90
4725;DHT22;2376;53.544;10.226;2023-07-20T05:17:36;16.50;99.90
4725;DHT22;2376;53.544;10.226;2023-07-20T05:20:03;16.60;99.90
4725;DHT22;2376;53.544;10.226;2023-07-20T05:22:30;16.60;99.90
4725;DHT22;2376;53.544;10.226;2023-07-20T05:24:57;16.60;99.90
4725;DHT22;2376;53.544;10.226;2023-07-20T05:27:23;16.60;99.90
4725;DHT22;2376;53.544;10.226;2023-07-20T05:29:50;16.60;99.90
4725;DHT22;2376;53.544;10.226;2023-07-20T05:32:18;16.60;99.90
4725;DHT22;2376;53.544;10.226;2023-07-20T05:34:45;16.60;99.90
4725;DHT22;2376;53.544;10.226;2023-07-20T05:37:11;16.60;99.90
4725;DHT22;2376;53.544;10.226;2023-07-20T05:39:38;16.60;99.90
4725;DHT22;2376;53.544;10.226;2023-07-20T05:42:05;16.60;99.90
4725;DHT22;2376;53.544;10.226;2023-07-20T05:44:32;16.60;99.90
4725;DHT22;2376;53.544;10.226;2023-07-20T05:46:58;16.60;99.90
4725;DHT22;2376;53.544;10.226;2023-07-20T05:49:27;16.70;99.90
4725;DHT22;2376;53.544;10.226;2023-07-20T05:51:54;16.70;99.90
4725;DHT22;2376;53.544;10.226;2023-07-20T05:54:21;16.70;99.90
4725;DHT22;2376;53.544;10.226;2023-07-20T05:56:47;16.70;99.90
4725;DHT22;2376;53.544;10.226;2023-07-20T05:59:14;16.70;99.90
4725;DHT22;2376;53.544;10.226;2023-07-20T06:01:42;16.70;99.90
4725;DHT22;2376;53.544;10.226;2023-07-20T06:04:09;16.80;99.90
4725;DHT22;2376;53.544;10.226;2023-07-20T06:06:37;16.80;99.90
4725;DHT22;2376;53.544;10.226;2023-07-20T06:09:04;16.90;99.90
4725;DHT22;2376;53.544;10.226;2023-07-20T06:11:33;16.80;99.90
4725;DHT22;2376;53.544;10.226;2023-07-20T06:13:59;16.80;99.90
4725;DHT22;2376;53.544;10.226;2023-07-20T06:16:26;16.90;99.90
4725;DHT22;2376;53.544;10.226;2023-07-20T06:18:53;16.90;99.90
4725;DHT22;2376;53.544;10.226;2023-07-20T06:21:19;16.90;99.90
4725;DHT22;2376;53.544;10.226;2023-07-20T06:23:47;16.90;99.90
4725;DHT22;2376;53.544;10.226;2023-07-20T06:26:14;17.00;99.90
4725;DHT22;2376;53.544;10.226;2023-07-20T06:28:41;17.00;99.90
4725;DHT22;2376;53.544;10.226;2023-07-20T06:31:08;17.00;99.90
4725;DHT22;2376;53.544;10.226;2023-07-20T06:33:34;17.00;99.90
4725;DHT22;2376;53.544;10.226;2023-07-20T06:36:01;17.00;99.90
4725;DHT22;2376;53.544;10.226;2023-07-20T06:38:28;17.00;99.90
4725;DHT22;2376;53.544;10.226;2023-07-20T06:40:56;17.10;99.90
4725;DHT22;2376;53.544;10.226;2023-07-20T06:43:22;17.20;99.90
4725;DHT22;2376;53.544;10.226;2023-07-20T06:45:51;17.30;99.90
4725;DHT22;2376;53.544;10.226;2023-07-20T06:48:18;17.40;99.90
4725;DHT22;2376;53.544;10.226;2023-07-20T06:50:45;17.40;99.90
4725;DHT22;2376;53.544;10.226;2023-07-20T06:53:12;17.50;99.90
4725;DHT22;2376;53.544;10.226;2023-07-20T06:55:41;17.50;99.90
4725;DHT22;2376;53.544;10.226;2023-07-20T06:58:09;17.50;99.90
4725;DHT22;2376;53.544;10.226;2023-07-20T07:00:36;17.50;99.90
4725;DHT22;2376;53.544;10.226;2023-07-20T07:03:02;17.50;99.90
4725;DHT22;2376;53.544;10.226;2023-07-20T07:05:29;17.50;99.90
4725;DHT22;2376;53.544;10.226;2023-07-20T07:07:56;17.50;99.90
4725;DHT22;2376;53.544;10.226;2023-07-20T07:10:23;17.40;99.90
4725;DHT22;2376;53.544;10.226;2023-07-20T07:12:49;17.50;99.90
4725;DHT22;2376;53.544;10.226;2023-07-20T07:15:17;17.50;99.90
4725;DHT22;2376;53.544;10.226;2023-07-20T07:17:44;17.50;99.90
4725;DHT22;2376;53.544;10.226;2023-07-20T07:20:11;17.60;99.90
4725;DHT22;2376;53.544;10.226;2023-07-20T07:22:38;17.60;99.90
4725;DHT22;2376;53.544;10.226;2023-07-20T07:25:05;17.70;99.90
4725;DHT22;2376;53.544;10.226;2023-07-20T07:27:33;17.80;99.90
4725;DHT22;2376;53.544;10.226;2023-07-20T07:29:59;18.00;99.90
4725;DHT22;2376;53.544;10.226;2023-07-20T07:32:27;18.00;99.90
4725;DHT22;2376;53.544;10.226;2023-07-20T07:34:54;18.00;99.90
4725;DHT22;2376;53.544;10.226;2023-07-20T07:37:21;18.10;99.90
4725;DHT22;2376;53.544;10.226;2023-07-20T07:39:48;18.00;99.90
4725;DHT22;2376;53.544;10.226;2023-07-20T07:42:15;18.00;99.90
4725;DHT22;2376;53.544;10.226;2023-07-20T07:44:42;18.00;99.90
4725;DHT22;2376;53.544;10.226;2023-07-20T07:47:09;18.00;99.90
4725;DHT22;2376;53.544;10.226;2023-07-20T07:49:37;18.10;99.90
4725;DHT22;2376;53.544;10.226;2023-07-20T07:52:05;18.10;99.90
4725;DHT22;2376;53.544;10.226;2023-07-20T07:54:32;18.20;99.90
4725;DHT22;2376;53.544;10.226;2023-07-20T07:56:58;18.20;99.90
4725;DHT22;2376;53.544;10.226;2023-07-20T07:59:25;18.30;99.90
4725;DHT22;2376;53.544;10.226;2023-07-20T08:01:52;18.50;99.90
4725;DHT22;2376;53.544;10.226;2023-07-20T08:04:19;18.60;99.90
4725;DHT22;2376;53.544;10.226;2023-07-20T08:06:47;18.60;99.90
4725;DHT22;2376;53.544;10.226;2023-07-20T08:09:13;18.50;99.90
4725;DHT22;2376;53.544;10.226;2023-07-20T08:11:40;18.30;99.90
4725;DHT22;2376;53.544;10.226;2023-07-20T08:14:07;18.30;99.90
4725;DHT22;2376;53.544;10.226;2023-07-20T08:16:33;18.00;99.90
4725;DHT22;2376;53.544;10.226;2023-07-20T08:19:00;17.90;99.90
4725;DHT22;2376;53.544;10.226;2023-07-20T08:21:27;17.90;99.90
4725;DHT22;2376;53.544;10.226;2023-07-20T08:23:55;17.80;99.90
4725;DHT22;2376;53.544;10.226;2023-07-20T08:26:23;17.80;99.90
4725;DHT22;2376;53.544;10.226;2023-07-20T08:28:49;17.90;99.90
4725;DHT22;2376;53.544;10.226;2023-07-20T08:31:16;18.00;99.90
4725;DHT22;2376;53.544;10.226;2023-07-20T08:33:43;17.90;99.90
4725;DHT22;2376;53.544;10.226;2023-07-20T08:36:10;18.10;99.90
4725;DHT22;2376;53.544;10.226;2023-07-20T08:38:36;18.30;99.90
4725;DHT22;2376;53.544;10.226;2023-07-20T08:41:04;18.40;99.90
4725;DHT22;2376;53.544;10.226;2023-07-20T08:43:31;18.50;99.90
4725;DHT22;2376;53.544;10.226;2023-07-20T08:46:00;18.50;99.90
4725;DHT22;2376;53.544;10.226;2023-07-20T08:48:28;18.60;99.90
4725;DHT22;2376;53.544;10.226;2023-07-20T08:50:58;18.70;99.90
4725;DHT22;2376;53.544;10.226;2023-07-20T08:53:25;18.80;99.90
4725;DHT22;2376;53.544;10.226;2023-07-20T08:55:53;19.00;99.90
4725;DHT22;2376;53.544;10.226;2023-07-20T08:58:22;19.10;99.90
4725;DHT22;2376;53.544;10.226;2023-07-20T09:00:51;19.10;99.90
4725;DHT22;2376;53.544;10.226;2023-07-20T09:03:18;19.20;99.90
4725;DHT22;2376;53.544;10.226;2023-07-20T09:05:45;19.30;99.90
4725;DHT22;2376;53.544;10.226;2023-07-20T09:08:12;19.40;99.90
4725;DHT22;2376;53.544;10.226;2023-07-20T09:10:39;19.50;99.90
4725;DHT22;2376;53.544;10.226;2023-07-20T09:13:05;19.50;99.90
4725;DHT22;2376;53.544;10.226;2023-07-20T09:15:33;19.50;99.90
4725;DHT22;2376;53.544;10.226;2023-07-20T09:18:01;19.40;99.90
4725;DHT22;2376;53.544;10.226;2023-07-20T09:20:32;19.40;99.90
4725;DHT22;2376;53.544;10.226;2023-07-20T09:22:59;19.40;99.90
4725;DHT22;2376;53.544;10.226;2023-07-20T09:25:27;19.30;99.90
4725;DHT22;2376;53.544;10.226;2023-07-20T09:27:53;19.30;99.90
4725;DHT22;2376;53.544;10.226;2023-07-20T09:30:25;19.30;99.90
4725;DHT22;2376;53.544;10.226;2023-07-20T09:32:53;19.30;99.90
4725;DHT22;2376;53.544;10.226;2023-07-20T09:35:21;19.30;99.90
4725;DHT22;2376;53.544;10.226;2023-07-20T09:37:50;19.40;99.90
4725;DHT22;2376;53.544;10.226;2023-07-20T09:40:18;19.50;99.90
4725;DHT22;2376;53.544;10.226;2023-07-20T09:42:45;19.70;99.90
4725;DHT22;2376;53.544;10.226;2023-07-20T09:45:12;19.70;99.90
4725;DHT22;2376;53.544;10.226;2023-07-20T09:47:39;19.90;99.90
4725;DHT22;2376;53.544;10.226;2023-07-20T09:50:08;19.90;99.90
4725;DHT22;2376;53.544;10.226;2023-07-20T09:52:39;19.20;99.90
4725;DHT22;2376;53.544;10.226;2023-07-20T09:55:07;18.90;99.90
4725;DHT22;2376;53.544;10.226;2023-07-20T09:57:35;18.50;99.90
4725;DHT22;2376;53.544;10.226;2023-07-20T10:00:04;18.60;99.90
4725;DHT22;2376;53.544;10.226;2023-07-20T10:02:34;18.50;99.90
4725;DHT22;2376;53.544;10.226;2023-07-20T10:05:04;18.50;99.90
4725;DHT22;2376;53.544;10.226;2023-07-20T10:07:36;18.60;99.90
4725;DHT22;2376;53.544;10.226;2023-07-20T10:10:08;18.80;99.90
4725;DHT22;2376;53.544;10.226;2023-07-20T10:12:37;19.00;99.90
4725;DHT22;2376;53.544;10.226;2023-07-20T10:15:11;19.10;99.90
4725;DHT22;2376;53.544;10.226;2023-07-20T10:17:46;19.10;99.90
4725;DHT22;2376;53.544;10.226;2023-07-20T10:20:17;19.10;99.90
4725;DHT22;2376;53.544;10.226;2023-07-20T10:22:48;19.20;99.90
4725;DHT22;2376;53.544;10.226;2023-07-20T10:25:16;19.30;99.90
4725;DHT22;2376;53.544;10.226;2023-07-20T10:27:43;19.30;99.90
4725;DHT22;2376;53.544;10.226;2023-07-20T10:30:10;19.20;99.90
4725;DHT22;2376;53.544;10.226;2023-07-20T10:32:39;19.30;99.90
4725;DHT22;2376;53.544;10.226;2023-07-20T10:35:13;19.50;99.90
4725;DHT22;2376;53.544;10.226;2023-07-20T10:37:52;19.60;99.90
4725;DHT22;2376;53.544;10.226;2023-07-20T10:40:32;19.70;99.90
4725;DHT22;2376;53.544;10.226;2023-07-20T10:43:00;19.90;99.90
4725;DHT22;2376;53.544;10.226;2023-07-20T10:45:47;20.00;99.90
4725;DHT22;2376;53.544;10.226;2023-07-20T10:48:15;20.10;99.90
4725;DHT22;2376;53.544;10.226;2023-07-20T10:50:42;20.30;99.90
4725;DHT22;2376;53.544;10.226;2023-07-20T10:53:14;20.10;99.90
4725;DHT22;2376;53.544;10.226;2023-07-20T10:55:42;20.20;99.90
4725;DHT22;2376;53.544;10.226;2023-07-20T10:58:10;20.30;99.90
4725;DHT22;2376;53.544;10.226;2023-07-20T11:00:38;20.20;99.90
4725;DHT22;2376;53.544;10.226;2023-07-20T11:03:27;20.10;99.90
4725;DHT22;2376;53.544;10.226;2023-07-20T11:05:53;20.10;99.90
4725;DHT22;2376;53.544;10.226;2023-07-20T11:08:38;20.20;99.90
4725;DHT22;2376;53.544;10.226;2023-07-20T11:11:25;20.20;99.90
4725;DHT22;2376;53.544;10.226;2023-07-20T11:13:59;20.20;99.90
4725;DHT22;2376;53.544;10.226;2023-07-20T11:16:37;20.20;99.90
4725;DHT22;2376;53.544;10.226;2023-07-20T11:19:04;20.40;99.90
4725;DHT22;2376;53.544;10.226;2023-07-20T11:21:36;20.40;99.90
4725;DHT22;2376;53.544;10.226;2023-07-20T11:24:05;20.40;99.90
4725;DHT22;2376;53.544;10.226;2023-07-20T11:26:43;20.40;99.90
4725;DHT22;2376;53.544;10.226;2023-07-20T11:29:10;20.40;99.90
4725;DHT22;2376;53.544;10.226;2023-07-20T11:31:38;20.40;99.90
4725;DHT22;2376;53.544;10.226;2023-07-20T11:34:05;20.40;99.90
4725;DHT22;2376;53.544;10.226;2023-07-20T11:36:33;20.20;99.90
4725;DHT22;2376;53.544;10.226;2023-07-20T11:38:59;20.20;99.90
4725;DHT22;2376;53.544;10.226;2023-07-20T11:41:27;19.90;99.90
4725;DHT22;2376;53.544;10.226;2023-07-20T11:43:54;19.80;99.90
4725;DHT22;2376;53.544;10.226;2023-07-20T11:46:21;19.70;99.90
4725;DHT22;2376;53.544;10.226;2023-07-20T11:48:48;19.80;99.90
4725;DHT22;2376;53.544;10.226;2023-07-20T11:51:15;20.00;99.90
4725;DHT22;2376;53.544;10.226;2023-07-20T11:53:43;20.00;99.90
4725;DHT22;2376;53.544;10.226;2023-07-20T11:56:10;20.20;99.90
4725;DHT22;2376;53.544;10.226;2023-07-20T11:58:43;20.40;99.90
4725;DHT22;2376;53.544;10.226;2023-07-20T12:01:11;20.30;99.90
4725;DHT22;2376;53.544;10.226;2023-07-20T12:03:38;20.40;99.90
4725;DHT22;2376;53.544;10.226;2023-07-20T12:06:08;20.60;99.90
4725;DHT22;2376;53.544;10.226;2023-07-20T12:08:35;20.80;99.90
4725;DHT22;2376;53.544;10.226;2023-07-20T12:11:04;20.90;99.90
4725;DHT22;2376;53.544;10.226;2023-07-20T12:13:38;21.10;99.90
4725;DHT22;2376;53.544;10.226;2023-07-20T12:16:13;21.00;99.90
4725;DHT22;2376;53.544;10.226;2023-07-20T12:18:40;21.00;99.90
4725;DHT22;2376;53.544;10.226;2023-07-20T12:21:07;21.10;99.90
4725;DHT22;2376;53.544;10.226;2023-07-20T12:23:38;21.10;99.90
4725;DHT22;2376;53.544;10.226;2023-07-20T12:26:06;21.20;99.90
4725;DHT22;2376;53.544;10.226;2023-07-20T12:28:38;20.80;99.90
4725;DHT22;2376;53.544;10.226;2023-07-20T12:31:05;20.40;99.90
4725;DHT22;2376;53.544;10.226;2023-07-20T12:33:34;20.10;99.90
4725;DHT22;2376;53.544;10.226;2023-07-20T12:36:00;20.10;99.90
4725;DHT22;2376;53.544;10.226;2023-07-20T12:38:27;20.10;99.90
4725;DHT22;2376;53.544;10.226;2023-07-20T12:40:56;19.80;99.90
4725;DHT22;2376;53.544;10.226;2023-07-20T12:43:23;19.90;99.90
4725;DHT22;2376;53.544;10.226;2023-07-20T12:45:50;20.10;99.90
4725;DHT22;2376;53.544;10.226;2023-07-20T12:48:17;20.00;99.90
4725;DHT22;2376;53.544;10.226;2023-07-20T12:50:45;19.90;99.90
4725;DHT22;2376;53.544;10.226;2023-07-20T12:53:12;19.40;99.90
4725;DHT22;2376;53.544;10.226;2023-07-20T12:55:38;19.50;99.90
4725;DHT22;2376;53.544;10.226;2023-07-20T12:58:06;19.80;99.90
4725;DHT22;2376;53.544;10.226;2023-07-20T13:00:33;19.90;99.90
4725;DHT22;2376;53.544;10.226;2023-07-20T13:02:59;19.90;99.90
4725;DHT22;2376;53.544;10.226;2023-07-20T13:05:30;20.00;99.90
4725;DHT22;2376;53.544;10.226;2023-07-20T13:07:58;20.30;99.90
4725;DHT22;2376;53.544;10.226;2023-07-20T13:10:25;20.30;99.90
4725;DHT22;2376;53.544;10.226;2023-07-20T13:12:52;20.40;99.90
4725;DHT22;2376;53.544;10.226;2023-07-20T13:15:18;20.60;99.90
4725;DHT22;2376;53.544;10.226;2023-07-20T13:17:45;20.60;99.90
4725;DHT22;2376;53.544;10.226;2023-07-20T13:20:12;20.80;99.90
4725;DHT22;2376;53.544;10.226;2023-07-20T13:22:40;20.80;99.90
4725;DHT22;2376;53.544;10.226;2023-07-20T13:25:08;20.70;99.90
4725;DHT22;2376;53.544;10.226;2023-07-20T13:27:36;20.80;99.90
4725;DHT22;2376;53.544;10.226;2023-07-20T13:30:04;20.90;99.90
4725;DHT22;2376;53.544;10.226;2023-07-20T13:32:32;21.10;99.90
4725;DHT22;2376;53.544;10.226;2023-07-20T13:34:59;21.30;99.90
4725;DHT22;2376;53.544;10.226;2023-07-20T13:37:26;21.50;99.90
4725;DHT22;2376;53.544;10.226;2023-07-20T13:39:53;21.60;99.90
4725;DHT22;2376;53.544;10.226;2023-07-20T13:42:21;21.60;99.90
4725;DHT22;2376;53.544;10.226;2023-07-20T13:44:48;21.90;99.90
4725;DHT22;2376;53.544;10.226;2023-07-20T13:47:15;21.90;99.90
4725;DHT22;2376;53.544;10.226;2023-07-20T13:49:41;21.90;99.90
4725;DHT22;2376;53.544;10.226;2023-07-20T13:52:08;22.10;99.90
4725;DHT22;2376;53.544;10.226;2023-07-20T13:54:35;22.20;99.90
4725;DHT22;2376;53.544;10.226;2023-07-20T13:57:01;22.30;99.90
4725;DHT22;2376;53.544;10.226;2023-07-20T13:59:30;22.10;99.90
4725;DHT22;2376;53.544;10.226;2023-07-20T14:01:56;22.00;99.90
4725;DHT22;2376;53.544;10.226;2023-07-20T14:04:23;21.80;99.90
4725;DHT22;2376;53.544;10.226;2023-07-20T14:06:50;21.80;99.90
4725;DHT22;2376;53.544;10.226;2023-07-20T14:09:16;21.20;99.90
4725;DHT22;2376;53.544;10.226;2023-07-20T14:11:43;21.10;99.90
4725;DHT22;2376;53.544;10.226;2023-07-20T14:14:10;21.10;99.90
4725;DHT22;2376;53.544;10.226;2023-07-20T14:16:39;21.00;99.90
4725;DHT22;2376;53.544;10.226;2023-07-20T14:19:05;20.70;99.90
4725;DHT22;2376;53.544;10.226;2023-07-20T14:21:32;20.60;99.90
4725;DHT22;2376;53.544;10.226;2023-07-20T14:23:59;20.70;99.90
4725;DHT22;2376;53.544;10.226;2023-07-20T14:26:25;20.90;99.90
4725;DHT22;2376;53.544;10.226;2023-07-20T14:28:52;21.10;99.90
4725;DHT22;2376;53.544;10.226;2023-07-20T14:31:19;21.50;99.90
4725;DHT22;2376;53.544;10.226;2023-07-20T14:33:47;21.70;97.70
4725;DHT22;2376;53.544;10.226;2023-07-20T14:36:14;21.70;90.90
4725;DHT22;2376;53.544;10.226;2023-07-20T14:38:40;21.80;93.30
4725;DHT22;2376;53.544;10.226;2023-07-20T14:41:08;22.00;95.00
4725;DHT22;2376;53.544;10.226;2023-07-20T14:43:35;22.10;95.20
4725;DHT22;2376;53.544;10.226;2023-07-20T14:46:01;21.90;96.70
4725;DHT22;2376;53.544;10.226;2023-07-20T14:48:28;21.70;97.50
4725;DHT22;2376;53.544;10.226;2023-07-20T14:50:56;21.70;96.60
4725;DHT22;2376;53.544;10.226;2023-07-20T14:53:23;21.80;97.30
4725;DHT22;2376;53.544;10.226;2023-07-20T14:55:49;21.90;95.10
4725;DHT22;2376;53.544;10.226;2023-07-20T14:58:16;21.80;96.20
4725;DHT22;2376;53.544;10.226;2023-07-20T15:00:43;22.10;96.00
4725;DHT22;2376;53.544;10.226;2023-07-20T15:03:09;22.10;93.90
4725;DHT22;2376;53.544;10.226;2023-07-20T15:05:36;22.30;94.60
4725;DHT22;2376;53.544;10.226;2023-07-20T15:08:05;22.50;92.40
4725;DHT22;2376;53.544;10.226;2023-07-20T15:10:33;22.70;83.50
4725;DHT22;2376;53.544;10.226;2023-07-20T15:13:00;22.70;77.40
4725;DHT22;2376;53.544;10.226;2023-07-20T15:15:28;22.50;73.90
4725;DHT22;2376;53.544;10.226;2023-07-20T15:17:54;22.60;76.20
4725;DHT22;2376;53.544;10.226;2023-07-20T15:20:21;23.10;77.40
4725;DHT22;2376;53.544;10.226;2023-07-20T15:22:48;23.40;75.70
4725;DHT22;2376;53.544;10.226;2023-07-20T15:25:16;23.90;76.90
4725;DHT22;2376;53.544;10.226;2023-07-20T15:27:43;24.50;72.70
4725;DHT22;2376;53.544;10.226;2023-07-20T15:30:10;24.90;70.30
4725;DHT22;2376;53.544;10.226;2023-07-20T15:32:37;25.40;68.00
4725;DHT22;2376;53.544;10.226;2023-07-20T15:35:06;25.10;65.50
4725;DHT22;2376;53.544;10.226;2023-07-20T15:37:32;25.40;63.70
4725;DHT22;2376;53.544;10.226;2023-07-20T15:39:59;25.80;62.70
4725;DHT22;2376;53.544;10.226;2023-07-20T15:42:31;25.90;59.60
4725;DHT22;2376;53.544;10.226;2023-07-20T15:44:58;25.90;59.20
4725;DHT22;2376;53.544;10.226;2023-07-20T15:47:25;26.20;59.60
4725;DHT22;2376;53.544;10.226;2023-07-20T15:49:52;26.30;58.20